sensor_id;sensor_type;location;lat;lon;timestamp;P1;durP1;ratioP1;P2;durP2;ratioP2
33094;SDS011;19459;53.044;8.910;2022-11-24T00:00:25;13.13;;;5.50;;
33094;SDS011;19459;53.044;8.910;2022-11-24T00:02:51;16.55;;;4.95;;
33094;SDS011;19459;53.044;8.910;2022-11-24T00:05:17;14.73;;;5.00;;
33094;SDS011;19459;53.044;8.910;2022-11-24T00:07:42;15.45;;;5.47;;
33094;SDS011;19459;53.044;8.910;2022-11-24T00:10:08;13.65;;;5.10;;
33094;SDS011;19459;53.044;8.910;2022-11-24T00:12:34;14.90;;;4.93;;
33094;SDS011;19459;53.044;8.910;2022-11-24T00:15:00;15.68;;;5.50;;
33094;SDS011;19459;53.044;8.910;2022-11-24T00:17:26;14.77;;;4.50;;
33094;SDS011;19459;53.044;8.910;2022-11-24T00:19:53;14.50;;;5.05;;
33094;SDS011;19459;53.044;8.910;2022-11-24T00:22:19;10.35;;;4.88;;
33094;SDS011;19459;53.044;8.910;2022-11-24T00:24:45;17.30;;;5.15;;
33094;SDS011;19459;53.044;8.910;2022-11-24T00:27:11;11.90;;;5.57;;
33094;SDS011;19459;53.044;8.910;2022-11-24T00:29:37;11.45;;;5.22;;
33094;SDS011;19459;53.044;8.910;2022-11-24T00:32:03;8.45;;;5.03;;
33094;SDS011;19459;53.044;8.910;2022-11-24T00:34:30;15.70;;;6.47;;
33094;SDS011;19459;53.044;8.910;2022-11-24T00:36:57;12.75;;;4.97;;
33094;SDS011;19459;53.044;8.910;2022-11-24T00:39:23;15.35;;;4.72;;
33094;SDS011;19459;53.044;8.910;2022-11-24T00:41:50;20.73;;;5.65;;
33094;SDS011;19459;53.044;8.910;2022-11-24T00:44:16;15.68;;;5.63;;
33094;SDS011;19459;53.044;8.910;2022-11-24T00:46:41;13.65;;;5.97;;
33094;SDS011;19459;53.044;8.910;2022-11-24T00:49:07;16.98;;;6.15;;
33094;SDS011;19459;53.044;8.910;2022-11-24T00:51:33;18.15;;;6.13;;
33094;SDS011;19459;53.044;8.910;2022-11-24T00:53:59;15.35;;;5.97;;
33094;SDS011;19459;53.044;8.910;2022-11-24T00:56:26;12.45;;;5.70;;
33094;SDS011;19459;53.044;8.910;2022-11-24T00:58:53;22.08;;;6.45;;
33094;SDS011;19459;53.044;8.910;2022-11-24T01:01:20;18.20;;;6.10;;
33094;SDS011;19459;53.044;8.910;2022-11-24T01:03:49;14.30;;;6.00;;
33094;SDS011;19459;53.044;8.910;2022-11-24T01:06:16;14.13;;;7.00;;
33094;SDS011;19459;53.044;8.910;2022-11-24T01:08:44;16.77;;;7.38;;
33094;SDS011;19459;53.044;8.910;2022-11-24T01:13:50;12.82;;;6.15;;
33094;SDS011;19459;53.044;8.910;2022-11-24T01:18:50;14.20;;;6.85;;
33094;SDS011;19459;53.044;8.910;2022-11-24T01:21:17;8.95;;;6.30;;
33094;SDS011;19459;53.044;8.910;2022-11-24T01:23:43;14.93;;;6.70;;
33094;SDS011;19459;53.044;8.910;2022-11-24T01:26:10;21.45;;;7.25;;
33094;SDS011;19459;53.044;8.910;2022-11-24T01:28:39;17.33;;;7.07;;
33094;SDS011;19459;53.044;8.910;2022-11-24T01:31:05;13.23;;;6.78;;
33094;SDS011;19459;53.044;8.910;2022-11-24T01:33:32;16.15;;;6.63;;
33094;SDS011;19459;53.044;8.910;2022-11-24T01:35:59;12.02;;;7.13;;
33094;SDS011;19459;53.044;8.910;2022-11-24T01:38:26;16.83;;;7.60;;
33094;SDS011;19459;53.044;8.910;2022-11-24T01:41:12;13.70;;;6.60;;
33094;SDS011;19459;53.044;8.910;2022-11-24T01:43:47;17.35;;;7.13;;
33094;SDS011;19459;53.044;8.910;2022-11-24T01:48:47;13.95;;;7.90;;
33094;SDS011;19459;53.044;8.910;2022-11-24T01:51:33;17.05;;;7.45;;
33094;SDS011;19459;53.044;8.910;2022-11-24T01:54:04;22.90;;;9.55;;
33094;SDS011;19459;53.044;8.910;2022-11-24T01:56:36;22.50;;;7.68;;
33094;SDS011;19459;53.044;8.910;2022-11-24T01:59:07;18.70;;;7.82;;
33094;SDS011;19459;53.044;8.910;2022-11-24T02:01:36;19.17;;;9.02;;
33094;SDS011;19459;53.044;8.910;2022-11-24T02:04:02;13.63;;;7.88;;
33094;SDS011;19459;53.044;8.910;2022-11-24T02:06:34;13.55;;;7.30;;
33094;SDS011;19459;53.044;8.910;2022-11-24T02:11:36;21.52;;;8.93;;
33094;SDS011;19459;53.044;8.910;2022-11-24T02:14:07;20.77;;;9.70;;
33094;SDS011;19459;53.044;8.910;2022-11-24T02:16:37;21.58;;;9.02;;
33094;SDS011;19459;53.044;8.910;2022-11-24T02:19:08;16.38;;;8.25;;
33094;SDS011;19459;53.044;8.910;2022-11-24T02:22:07;19.27;;;9.02;;
33094;SDS011;19459;53.044;8.910;2022-11-24T02:27:58;21.83;;;9.38;;
33094;SDS011;19459;53.044;8.910;2022-11-24T02:30:26;25.45;;;9.25;;
33094;SDS011;19459;53.044;8.910;2022-11-24T02:32:52;18.67;;;8.60;;
33094;SDS011;19459;53.044;8.910;2022-11-24T02:35:19;18.30;;;8.75;;
33094;SDS011;19459;53.044;8.910;2022-11-24T02:37:45;16.80;;;7.78;;
33094;SDS011;19459;53.044;8.910;2022-11-24T02:40:13;20.58;;;9.65;;
33094;SDS011;19459;53.044;8.910;2022-11-24T02:42:41;22.90;;;7.72;;
33094;SDS011;19459;53.044;8.910;2022-11-24T02:45:10;22.88;;;8.88;;
33094;SDS011;19459;53.044;8.910;2022-11-24T02:47:38;15.68;;;8.20;;
33094;SDS011;19459;53.044;8.910;2022-11-24T02:50:04;19.13;;;8.10;;
33094;SDS011;19459;53.044;8.910;2022-11-24T02:52:30;19.10;;;8.38;;
33094;SDS011;19459;53.044;8.910;2022-11-24T02:54:56;21.55;;;8.52;;
33094;SDS011;19459;53.044;8.910;2022-11-24T02:57:22;24.75;;;8.82;;
33094;SDS011;19459;53.044;8.910;2022-11-24T02:59:48;15.40;;;7.90;;
33094;SDS011;19459;53.044;8.910;2022-11-24T03:02:14;21.15;;;7.55;;
33094;SDS011;19459;53.044;8.910;2022-11-24T03:04:40;22.58;;;7.75;;
33094;SDS011;19459;53.044;8.910;2022-11-24T03:07:06;21.65;;;8.07;;
33094;SDS011;19459;53.044;8.910;2022-11-24T03:09:31;24.50;;;9.13;;
33094;SDS011;19459;53.044;8.910;2022-11-24T03:11:57;30.60;;;9.88;;
33094;SDS011;19459;53.044;8.910;2022-11-24T03:14:23;19.42;;;9.07;;
33094;SDS011;19459;53.044;8.910;2022-11-24T03:16:49;24.70;;;9.20;;
33094;SDS011;19459;53.044;8.910;2022-11-24T03:19:15;20.65;;;9.35;;
33094;SDS011;19459;53.044;8.910;2022-11-24T03:21:40;25.00;;;9.30;;
33094;SDS011;19459;53.044;8.910;2022-11-24T03:24:06;23.10;;;9.15;;
33094;SDS011;19459;53.044;8.910;2022-11-24T03:26:33;26.55;;;9.85;;
33094;SDS011;19459;53.044;8.910;2022-11-24T03:28:59;26.20;;;11.00;;
33094;SDS011;19459;53.044;8.910;2022-11-24T03:31:25;31.77;;;11.35;;
33094;SDS011;19459;53.044;8.910;2022-11-24T03:33:51;24.55;;;9.77;;
33094;SDS011;19459;53.044;8.910;2022-11-24T03:36:17;30.58;;;10.23;;
33094;SDS011;19459;53.044;8.910;2022-11-24T03:38:43;31.00;;;10.50;;
33094;SDS011;19459;53.044;8.910;2022-11-24T03:41:08;27.40;;;10.88;;
33094;SDS011;19459;53.044;8.910;2022-11-24T03:43:34;28.67;;;11.13;;
33094;SDS011;19459;53.044;8.910;2022-11-24T03:46:00;39.72;;;11.90;;
33094;SDS011;19459;53.044;8.910;2022-11-24T03:48:26;24.67;;;11.68;;
33094;SDS011;19459;53.044;8.910;2022-11-24T03:50:53;28.65;;;10.95;;
33094;SDS011;19459;53.044;8.910;2022-11-24T03:53:21;28.23;;;10.77;;
33094;SDS011;19459;53.044;8.910;2022-11-24T03:55:48;28.30;;;11.15;;
33094;SDS011;19459;53.044;8.910;2022-11-24T03:58:14;27.67;;;11.25;;
33094;SDS011;19459;53.044;8.910;2022-11-24T04:00:40;27.40;;;11.35;;
33094;SDS011;19459;53.044;8.910;2022-11-24T04:03:06;24.98;;;11.77;;
33094;SDS011;19459;53.044;8.910;2022-11-24T04:05:32;32.20;;;11.77;;
33094;SDS011;19459;53.044;8.910;2022-11-24T04:08:00;37.42;;;11.23;;
33094;SDS011;19459;53.044;8.910;2022-11-24T04:10:33;31.30;;;11.98;;
33094;SDS011;19459;53.044;8.910;2022-11-24T04:13:08;24.35;;;11.82;;
33094;SDS011;19459;53.044;8.910;2022-11-24T04:15:40;31.20;;;11.65;;
33094;SDS011;19459;53.044;8.910;2022-11-24T04:18:07;34.90;;;12.10;;
33094;SDS011;19459;53.044;8.910;2022-11-24T04:20:34;34.42;;;10.98;;
33094;SDS011;19459;53.044;8.910;2022-11-24T04:23:01;27.95;;;11.38;;
33094;SDS011;19459;53.044;8.910;2022-11-24T04:25:27;30.30;;;13.10;;
33094;SDS011;19459;53.044;8.910;2022-11-24T04:27:53;30.90;;;12.63;;
33094;SDS011;19459;53.044;8.910;2022-11-24T04:30:20;34.70;;;11.77;;
33094;SDS011;19459;53.044;8.910;2022-11-24T04:32:47;35.83;;;12.55;;
33094;SDS011;19459;53.044;8.910;2022-11-24T04:35:13;23.85;;;12.93;;
33094;SDS011;19459;53.044;8.910;2022-11-24T04:37:39;32.22;;;13.30;;
33094;SDS011;19459;53.044;8.910;2022-11-24T04:40:06;35.35;;;13.73;;
33094;SDS011;19459;53.044;8.910;2022-11-24T04:42:34;33.53;;;14.73;;
33094;SDS011;19459;53.044;8.910;2022-11-24T04:44:59;31.40;;;12.85;;
33094;SDS011;19459;53.044;8.910;2022-11-24T04:47:25;31.02;;;13.25;;
33094;SDS011;19459;53.044;8.910;2022-11-24T04:49:52;29.70;;;13.55;;
33094;SDS011;19459;53.044;8.910;2022-11-24T04:52:18;41.42;;;14.52;;
33094;SDS011;19459;53.044;8.910;2022-11-24T04:54:47;46.92;;;14.40;;
33094;SDS011;19459;53.044;8.910;2022-11-24T04:57:20;30.70;;;13.55;;
33094;SDS011;19459;53.044;8.910;2022-11-24T04:59:49;51.20;;;14.18;;
33094;SDS011;19459;53.044;8.910;2022-11-24T05:02:16;39.35;;;14.13;;
33094;SDS011;19459;53.044;8.910;2022-11-24T05:04:43;37.88;;;14.20;;
33094;SDS011;19459;53.044;8.910;2022-11-24T05:07:10;38.05;;;13.05;;
33094;SDS011;19459;53.044;8.910;2022-11-24T05:09:37;44.00;;;13.95;;
33094;SDS011;19459;53.044;8.910;2022-11-24T05:12:23;29.55;;;13.90;;
33094;SDS011;19459;53.044;8.910;2022-11-24T05:14:49;37.13;;;13.80;;
33094;SDS011;19459;53.044;8.910;2022-11-24T05:17:15;35.10;;;15.30;;
33094;SDS011;19459;53.044;8.910;2022-11-24T05:19:41;36.17;;;19.08;;
33094;SDS011;19459;53.044;8.910;2022-11-24T05:22:07;35.35;;;13.48;;
33094;SDS011;19459;53.044;8.910;2022-11-24T05:24:33;45.60;;;17.88;;
33094;SDS011;19459;53.044;8.910;2022-11-24T05:26:58;51.08;;;20.13;;
33094;SDS011;19459;53.044;8.910;2022-11-24T05:29:24;39.78;;;16.33;;
33094;SDS011;19459;53.044;8.910;2022-11-24T05:31:50;39.72;;;16.60;;
33094;SDS011;19459;53.044;8.910;2022-11-24T05:34:16;60.65;;;21.60;;
33094;SDS011;19459;53.044;8.910;2022-11-24T05:36:42;45.63;;;17.20;;
33094;SDS011;19459;53.044;8.910;2022-11-24T05:39:17;44.58;;;17.65;;
33094;SDS011;19459;53.044;8.910;2022-11-24T05:41:43;46.95;;;16.98;;
33094;SDS011;19459;53.044;8.910;2022-11-24T05:44:09;48.60;;;14.38;;
33094;SDS011;19459;53.044;8.910;2022-11-24T05:46:35;45.72;;;17.02;;
33094;SDS011;19459;53.044;8.910;2022-11-24T05:49:01;36.60;;;17.23;;
33094;SDS011;19459;53.044;8.910;2022-11-24T05:51:27;47.13;;;17.35;;
33094;SDS011;19459;53.044;8.910;2022-11-24T05:53:54;45.10;;;14.85;;
33094;SDS011;19459;53.044;8.910;2022-11-24T05:56:20;44.78;;;14.05;;
33094;SDS011;19459;53.044;8.910;2022-11-24T05:58:46;36.65;;;14.63;;
33094;SDS011;19459;53.044;8.910;2022-11-24T06:01:11;40.30;;;16.25;;
33094;SDS011;19459;53.044;8.910;2022-11-24T06:03:37;42.60;;;15.35;;
33094;SDS011;19459;53.044;8.910;2022-11-24T06:06:03;39.90;;;13.25;;
33094;SDS011;19459;53.044;8.910;2022-11-24T06:08:29;45.05;;;15.35;;
33094;SDS011;19459;53.044;8.910;2022-11-24T06:10:58;41.67;;;14.95;;
33094;SDS011;19459;53.044;8.910;2022-11-24T06:13:43;34.13;;;14.05;;
33094;SDS011;19459;53.044;8.910;2022-11-24T06:16:12;43.92;;;14.93;;
33094;SDS011;19459;53.044;8.910;2022-11-24T06:18:38;34.67;;;13.77;;
33094;SDS011;19459;53.044;8.910;2022-11-24T06:21:04;33.55;;;14.15;;
33094;SDS011;19459;53.044;8.910;2022-11-24T06:23:31;36.95;;;13.73;;
33094;SDS011;19459;53.044;8.910;2022-11-24T06:25:58;47.42;;;14.75;;
33094;SDS011;19459;53.044;8.910;2022-11-24T06:28:24;49.22;;;15.32;;
33094;SDS011;19459;53.044;8.910;2022-11-24T06:30:51;36.85;;;14.35;;
33094;SDS011;19459;53.044;8.910;2022-11-24T06:33:16;40.20;;;14.00;;
33094;SDS011;19459;53.044;8.910;2022-11-24T06:35:42;55.03;;;15.55;;
33094;SDS011;19459;53.044;8.910;2022-11-24T06:38:08;53.50;;;15.25;;
33094;SDS011;19459;53.044;8.910;2022-11-24T06:40:34;32.67;;;14.05;;
33094;SDS011;19459;53.044;8.910;2022-11-24T06:43:00;52.90;;;14.52;;
33094;SDS011;19459;53.044;8.910;2022-11-24T06:45:25;48.83;;;15.07;;
33094;SDS011;19459;53.044;8.910;2022-11-24T06:47:54;46.03;;;15.98;;
33094;SDS011;19459;53.044;8.910;2022-11-24T06:50:21;41.53;;;13.98;;
33094;SDS011;19459;53.044;8.910;2022-11-24T06:52:47;33.15;;;15.43;;
33094;SDS011;19459;53.044;8.910;2022-11-24T06:55:13;37.83;;;17.02;;
33094;SDS011;19459;53.044;8.910;2022-11-24T06:57:39;39.40;;;15.82;;
33094;SDS011;19459;53.044;8.910;2022-11-24T07:00:05;42.22;;;15.18;;
33094;SDS011;19459;53.044;8.910;2022-11-24T07:02:32;43.15;;;16.05;;
33094;SDS011;19459;53.044;8.910;2022-11-24T07:04:58;38.17;;;14.02;;
33094;SDS011;19459;53.044;8.910;2022-11-24T07:07:24;31.05;;;12.18;;
33094;SDS011;19459;53.044;8.910;2022-11-24T07:09:50;42.63;;;13.40;;
33094;SDS011;19459;53.044;8.910;2022-11-24T07:12:16;45.22;;;13.13;;
33094;SDS011;19459;53.044;8.910;2022-11-24T07:14:42;39.20;;;14.15;;
33094;SDS011;19459;53.044;8.910;2022-11-24T07:17:07;40.53;;;12.68;;
33094;SDS011;19459;53.044;8.910;2022-11-24T07:19:33;39.88;;;11.98;;
33094;SDS011;19459;53.044;8.910;2022-11-24T07:21:59;38.00;;;12.25;;
33094;SDS011;19459;53.044;8.910;2022-11-24T07:24:25;42.75;;;13.93;;
33094;SDS011;19459;53.044;8.910;2022-11-24T07:26:50;50.80;;;12.05;;
33094;SDS011;19459;53.044;8.910;2022-11-24T07:29:17;42.83;;;13.07;;
33094;SDS011;19459;53.044;8.910;2022-11-24T07:31:43;36.13;;;12.55;;
33094;SDS011;19459;53.044;8.910;2022-11-24T07:34:09;37.10;;;11.65;;
33094;SDS011;19459;53.044;8.910;2022-11-24T07:36:35;37.15;;;11.65;;
33094;SDS011;19459;53.044;8.910;2022-11-24T07:39:01;32.75;;;11.88;;
33094;SDS011;19459;53.044;8.910;2022-11-24T07:41:30;40.20;;;12.00;;
33094;SDS011;19459;53.044;8.910;2022-11-24T07:43:56;28.42;;;10.50;;
33094;SDS011;19459;53.044;8.910;2022-11-24T07:46:21;39.65;;;10.55;;
33094;SDS011;19459;53.044;8.910;2022-11-24T07:48:47;33.47;;;11.70;;
33094;SDS011;19459;53.044;8.910;2022-11-24T07:51:13;33.70;;;10.43;;
33094;SDS011;19459;53.044;8.910;2022-11-24T07:53:39;38.50;;;10.55;;
33094;SDS011;19459;53.044;8.910;2022-11-24T07:56:05;41.63;;;10.68;;
33094;SDS011;19459;53.044;8.910;2022-11-24T07:58:33;35.30;;;10.02;;
33094;SDS011;19459;53.044;8.910;2022-11-24T08:01:10;33.85;;;11.43;;
33094;SDS011;19459;53.044;8.910;2022-11-24T08:03:39;32.97;;;10.00;;
33094;SDS011;19459;53.044;8.910;2022-11-24T08:06:06;33.10;;;9.95;;
33094;SDS011;19459;53.044;8.910;2022-11-24T08:08:32;34.85;;;9.52;;
33094;SDS011;19459;53.044;8.910;2022-11-24T08:11:02;40.75;;;10.52;;
33094;SDS011;19459;53.044;8.910;2022-11-24T08:13:40;28.52;;;11.02;;
33094;SDS011;19459;53.044;8.910;2022-11-24T08:16:07;40.38;;;9.52;;
33094;SDS011;19459;53.044;8.910;2022-11-24T08:18:36;30.02;;;8.80;;
33094;SDS011;19459;53.044;8.910;2022-11-24T08:21:02;32.58;;;9.05;;
33094;SDS011;19459;53.044;8.910;2022-11-24T08:23:29;34.55;;;8.38;;
33094;SDS011;19459;53.044;8.910;2022-11-24T08:25:55;37.95;;;10.05;;
33094;SDS011;19459;53.044;8.910;2022-11-24T08:28:26;35.30;;;9.30;;
33094;SDS011;19459;53.044;8.910;2022-11-24T08:30:52;36.17;;;9.68;;
33094;SDS011;19459;53.044;8.910;2022-11-24T08:33:33;34.03;;;9.40;;
33094;SDS011;19459;53.044;8.910;2022-11-24T08:36:03;24.92;;;7.85;;
33094;SDS011;19459;53.044;8.910;2022-11-24T08:38:35;31.20;;;8.45;;
33094;SDS011;19459;53.044;8.910;2022-11-24T08:41:02;44.20;;;10.27;;
33094;SDS011;19459;53.044;8.910;2022-11-24T08:43:33;33.70;;;8.75;;
33094;SDS011;19459;53.044;8.910;2022-11-24T08:46:03;35.63;;;8.55;;
33094;SDS011;19459;53.044;8.910;2022-11-24T08:48:34;31.58;;;8.32;;
33094;SDS011;19459;53.044;8.910;2022-11-24T08:51:07;32.28;;;8.70;;
33094;SDS011;19459;53.044;8.910;2022-11-24T08:53:37;30.10;;;8.23;;
33094;SDS011;19459;53.044;8.910;2022-11-24T08:56:03;24.60;;;6.65;;
33094;SDS011;19459;53.044;8.910;2022-11-24T08:58:31;27.33;;;6.55;;
33094;SDS011;19459;53.044;8.910;2022-11-24T09:01:04;29.70;;;7.25;;
33094;SDS011;19459;53.044;8.910;2022-11-24T09:03:33;28.67;;;7.05;;
33094;SDS011;19459;53.044;8.910;2022-11-24T09:05:59;31.10;;;7.93;;
33094;SDS011;19459;53.044;8.910;2022-11-24T09:08:27;29.67;;;7.28;;
33094;SDS011;19459;53.044;8.910;2022-11-24T09:11:01;21.65;;;6.22;;
33094;SDS011;19459;53.044;8.910;2022-11-24T09:13:30;23.20;;;7.05;;
33094;SDS011;19459;53.044;8.910;2022-11-24T09:16:00;39.22;;;7.35;;
33094;SDS011;19459;53.044;8.910;2022-11-24T09:18:32;29.50;;;6.45;;
33094;SDS011;19459;53.044;8.910;2022-11-24T09:21:17;35.30;;;6.82;;
33094;SDS011;19459;53.044;8.910;2022-11-24T09:23:47;27.92;;;6.13;;
33094;SDS011;19459;53.044;8.910;2022-11-24T09:26:15;24.80;;;7.00;;
33094;SDS011;19459;53.044;8.910;2022-11-24T09:28:47;31.00;;;6.95;;
33094;SDS011;19459;53.044;8.910;2022-11-24T09:31:15;32.38;;;7.38;;
33094;SDS011;19459;53.044;8.910;2022-11-24T09:33:42;30.05;;;6.03;;
33094;SDS011;19459;53.044;8.910;2022-11-24T09:36:09;22.58;;;6.28;;
33094;SDS011;19459;53.044;8.910;2022-11-24T09:38:36;36.72;;;7.28;;
33094;SDS011;19459;53.044;8.910;2022-11-24T09:50:01;27.98;;;6.63;;
33094;SDS011;19459;53.044;8.910;2022-11-24T09:52:43;23.73;;;6.45;;
33094;SDS011;19459;53.044;8.910;2022-11-24T09:55:36;27.23;;;5.57;;
33094;SDS011;19459;53.044;8.910;2022-11-24T10:01:19;30.92;;;6.60;;
33094;SDS011;19459;53.044;8.910;2022-11-24T10:03:53;24.00;;;5.55;;
33094;SDS011;19459;53.044;8.910;2022-11-24T10:11:44;31.58;;;5.43;;
33094;SDS011;19459;53.044;8.910;2022-11-24T10:20:48;34.72;;;6.43;;
33094;SDS011;19459;53.044;8.910;2022-11-24T10:23:25;21.70;;;5.55;;
33094;SDS011;19459;53.044;8.910;2022-11-24T10:26:00;22.88;;;5.45;;
33094;SDS011;19459;53.044;8.910;2022-11-24T10:28:40;27.40;;;6.30;;
33094;SDS011;19459;53.044;8.910;2022-11-24T10:34:08;27.17;;;5.63;;
33094;SDS011;19459;53.044;8.910;2022-11-24T10:39:40;18.73;;;4.57;;
33094;SDS011;19459;53.044;8.910;2022-11-24T10:42:16;26.08;;;5.00;;
33094;SDS011;19459;53.044;8.910;2022-11-24T10:44:47;20.65;;;5.13;;
33094;SDS011;19459;53.044;8.910;2022-11-24T10:47:43;28.52;;;5.78;;
33094;SDS011;19459;53.044;8.910;2022-11-24T10:52:46;18.13;;;5.55;;
33094;SDS011;19459;53.044;8.910;2022-11-24T11:00:55;26.08;;;5.57;;
33094;SDS011;19459;53.044;8.910;2022-11-24T11:03:25;24.85;;;5.13;;
33094;SDS011;19459;53.044;8.910;2022-11-24T11:07:17;28.17;;;6.18;;
33094;SDS011;19459;53.044;8.910;2022-11-24T11:10:17;20.83;;;5.28;;
33094;SDS011;19459;53.044;8.910;2022-11-24T11:12:48;28.73;;;6.55;;
33094;SDS011;19459;53.044;8.910;2022-11-24T11:15:24;24.92;;;5.88;;
33094;SDS011;19459;53.044;8.910;2022-11-24T11:17:57;20.40;;;5.20;;
33094;SDS011;19459;53.044;8.910;2022-11-24T11:20:29;26.98;;;5.95;;
33094;SDS011;19459;53.044;8.910;2022-11-24T11:22:58;27.48;;;5.57;;
33094;SDS011;19459;53.044;8.910;2022-11-24T11:25:32;25.58;;;5.68;;
33094;SDS011;19459;53.044;8.910;2022-11-24T11:33:30;24.60;;;6.43;;
33094;SDS011;19459;53.044;8.910;2022-11-24T11:36:00;21.60;;;6.32;;
33094;SDS011;19459;53.044;8.910;2022-11-24T11:38:36;19.67;;;5.38;;
33094;SDS011;19459;53.044;8.910;2022-11-24T11:41:04;20.98;;;5.57;;
33094;SDS011;19459;53.044;8.910;2022-11-24T11:43:35;17.70;;;5.47;;
33094;SDS011;19459;53.044;8.910;2022-11-24T11:46:11;27.00;;;6.60;;
33094;SDS011;19459;53.044;8.910;2022-11-24T11:48:43;20.52;;;5.30;;
33094;SDS011;19459;53.044;8.910;2022-11-24T12:02:36;14.70;;;5.20;;
33094;SDS011;19459;53.044;8.910;2022-11-24T12:08:30;23.88;;;6.13;;
33094;SDS011;19459;53.044;8.910;2022-11-24T12:14:10;26.75;;;5.43;;
33094;SDS011;19459;53.044;8.910;2022-11-24T12:17:06;16.45;;;4.28;;
33094;SDS011;19459;53.044;8.910;2022-11-24T12:22:58;11.48;;;4.40;;
33094;SDS011;19459;53.044;8.910;2022-11-24T12:34:18;14.00;;;5.07;;
33094;SDS011;19459;53.044;8.910;2022-11-24T12:37:26;12.98;;;4.80;;
33094;SDS011;19459;53.044;8.910;2022-11-24T12:40:17;18.27;;;6.03;;
33094;SDS011;19459;53.044;8.910;2022-11-24T12:43:03;17.73;;;5.50;;
33094;SDS011;19459;53.044;8.910;2022-11-24T12:48:42;20.77;;;5.60;;
33094;SDS011;19459;53.044;8.910;2022-11-24T12:51:16;19.27;;;5.13;;
33094;SDS011;19459;53.044;8.910;2022-11-24T12:53:44;17.02;;;4.80;;
33094;SDS011;19459;53.044;8.910;2022-11-24T12:56:12;21.67;;;6.82;;
33094;SDS011;19459;53.044;8.910;2022-11-24T12:59:44;16.88;;;4.95;;
33094;SDS011;19459;53.044;8.910;2022-11-24T13:01:52;16.02;;;4.68;;
33094;SDS011;19459;53.044;8.910;2022-11-24T13:05:21;14.70;;;4.63;;
33094;SDS011;19459;53.044;8.910;2022-11-24T13:13:05;13.75;;;3.92;;
33094;SDS011;19459;53.044;8.910;2022-11-24T13:18:57;15.35;;;4.93;;
33094;SDS011;19459;53.044;8.910;2022-11-24T13:22:09;14.88;;;3.90;;
33094;SDS011;19459;53.044;8.910;2022-11-24T13:24:47;11.77;;;4.05;;
33094;SDS011;19459;53.044;8.910;2022-11-24T13:27:55;13.98;;;3.78;;
33094;SDS011;19459;53.044;8.910;2022-11-24T13:53:57;14.27;;;4.55;;
33094;SDS011;19459;53.044;8.910;2022-11-24T13:58:45;13.93;;;4.20;;
33094;SDS011;19459;53.044;8.910;2022-11-24T14:06:25;16.80;;;4.53;;
33094;SDS011;19459;53.044;8.910;2022-11-24T14:08:59;9.88;;;4.15;;
33094;SDS011;19459;53.044;8.910;2022-11-24T14:12:33;10.45;;;4.35;;
33094;SDS011;19459;53.044;8.910;2022-11-24T14:14:52;15.50;;;4.63;;
33094;SDS011;19459;53.044;8.910;2022-11-24T14:17:43;12.40;;;4.15;;
33094;SDS011;19459;53.044;8.910;2022-11-24T14:20:15;24.67;;;4.07;;
33094;SDS011;19459;53.044;8.910;2022-11-24T14:22:48;10.70;;;4.05;;
33094;SDS011;19459;53.044;8.910;2022-11-24T14:25:28;11.63;;;4.75;;
33094;SDS011;19459;53.044;8.910;2022-11-24T14:27:55;11.43;;;3.97;;
33094;SDS011;19459;53.044;8.910;2022-11-24T14:30:22;11.25;;;4.07;;
33094;SDS011;19459;53.044;8.910;2022-11-24T14:32:59;10.05;;;4.03;;
33094;SDS011;19459;53.044;8.910;2022-11-24T14:37:57;13.30;;;4.57;;
33094;SDS011;19459;53.044;8.910;2022-11-24T14:48:27;9.40;;;4.45;;
33094;SDS011;19459;53.044;8.910;2022-11-24T14:51:06;13.05;;;5.15;;
33094;SDS011;19459;53.044;8.910;2022-11-24T14:54:14;9.68;;;4.90;;
33094;SDS011;19459;53.044;8.910;2022-11-24T14:56:54;11.32;;;4.80;;
33094;SDS011;19459;53.044;8.910;2022-11-24T14:59:24;10.32;;;5.63;;
33094;SDS011;19459;53.044;8.910;2022-11-24T15:01:53;16.33;;;6.68;;
33094;SDS011;19459;53.044;8.910;2022-11-24T15:09:49;13.10;;;6.90;;
33094;SDS011;19459;53.044;8.910;2022-11-24T15:14:59;13.52;;;7.00;;
33094;SDS011;19459;53.044;8.910;2022-11-24T15:18:00;11.48;;;6.18;;
33094;SDS011;19459;53.044;8.910;2022-11-24T15:20:30;15.25;;;5.82;;
33094;SDS011;19459;53.044;8.910;2022-11-24T15:25:55;16.40;;;6.55;;
33094;SDS011;19459;53.044;8.910;2022-11-24T15:28:22;14.80;;;5.68;;
33094;SDS011;19459;53.044;8.910;2022-11-24T15:30:55;11.73;;;7.03;;
33094;SDS011;19459;53.044;8.910;2022-11-24T15:33:25;16.87;;;7.50;;
33094;SDS011;19459;53.044;8.910;2022-11-24T15:35:51;18.83;;;7.30;;
33094;SDS011;19459;53.044;8.910;2022-11-24T15:38:18;11.35;;;6.78;;
33094;SDS011;19459;53.044;8.910;2022-11-24T15:40:44;15.55;;;6.55;;
33094;SDS011;19459;53.044;8.910;2022-11-24T15:45:51;9.20;;;6.00;;
33094;SDS011;19459;53.044;8.910;2022-11-24T15:48:17;17.23;;;7.75;;
33094;SDS011;19459;53.044;8.910;2022-11-24T15:50:43;9.88;;;5.75;;
33094;SDS011;19459;53.044;8.910;2022-11-24T15:53:14;12.65;;;6.55;;
33094;SDS011;19459;53.044;8.910;2022-11-24T15:55:46;11.63;;;6.65;;
33094;SDS011;19459;53.044;8.910;2022-11-24T15:58:13;19.65;;;8.35;;
33094;SDS011;19459;53.044;8.910;2022-11-24T16:00:40;12.45;;;6.68;;
33094;SDS011;19459;53.044;8.910;2022-11-24T16:03:07;12.82;;;6.97;;
33094;SDS011;19459;53.044;8.910;2022-11-24T16:05:33;17.30;;;6.75;;
33094;SDS011;19459;53.044;8.910;2022-11-24T16:08:01;18.80;;;8.13;;
33094;SDS011;19459;53.044;8.910;2022-11-24T16:10:28;14.07;;;7.78;;
33094;SDS011;19459;53.044;8.910;2022-11-24T16:12:57;15.23;;;7.20;;
33094;SDS011;19459;53.044;8.910;2022-11-24T16:15:23;11.23;;;6.95;;
33094;SDS011;19459;53.044;8.910;2022-11-24T16:17:49;14.23;;;7.38;;
33094;SDS011;19459;53.044;8.910;2022-11-24T16:20:15;21.27;;;8.80;;
33094;SDS011;19459;53.044;8.910;2022-11-24T16:22:41;18.95;;;9.45;;
33094;SDS011;19459;53.044;8.910;2022-11-24T16:25:07;20.55;;;9.25;;
33094;SDS011;19459;53.044;8.910;2022-11-24T16:27:33;21.23;;;9.40;;
33094;SDS011;19459;53.044;8.910;2022-11-24T16:29:59;15.55;;;9.10;;
33094;SDS011;19459;53.044;8.910;2022-11-24T16:32:25;16.80;;;10.05;;
33094;SDS011;19459;53.044;8.910;2022-11-24T16:34:51;18.48;;;9.57;;
33094;SDS011;19459;53.044;8.910;2022-11-24T16:37:18;18.42;;;10.60;;
33094;SDS011;19459;53.044;8.910;2022-11-24T16:39:45;34.10;;;22.40;;
33094;SDS011;19459;53.044;8.910;2022-11-24T16:42:12;31.35;;;21.00;;
33094;SDS011;19459;53.044;8.910;2022-11-24T16:44:38;31.88;;;16.95;;
33094;SDS011;19459;53.044;8.910;2022-11-24T16:47:04;29.52;;;16.23;;
33094;SDS011;19459;53.044;8.910;2022-11-24T16:49:30;36.35;;;16.67;;
33094;SDS011;19459;53.044;8.910;2022-11-24T16:51:56;31.60;;;18.92;;
33094;SDS011;19459;53.044;8.910;2022-11-24T16:54:22;29.73;;;17.88;;
33094;SDS011;19459;53.044;8.910;2022-11-24T16:56:47;35.55;;;19.27;;
33094;SDS011;19459;53.044;8.910;2022-11-24T16:59:13;27.73;;;15.45;;
33094;SDS011;19459;53.044;8.910;2022-11-24T17:01:39;29.27;;;16.42;;
33094;SDS011;19459;53.044;8.910;2022-11-24T17:04:05;49.05;;;30.48;;
33094;SDS011;19459;53.044;8.910;2022-11-24T17:06:31;42.03;;;25.65;;
33094;SDS011;19459;53.044;8.910;2022-11-24T17:08:58;39.50;;;21.58;;
33094;SDS011;19459;53.044;8.910;2022-11-24T17:11:24;26.90;;;18.10;;
33094;SDS011;19459;53.044;8.910;2022-11-24T17:13:51;29.25;;;16.60;;
33094;SDS011;19459;53.044;8.910;2022-11-24T17:16:19;32.53;;;16.05;;
33094;SDS011;19459;53.044;8.910;2022-11-24T17:18:46;22.00;;;13.23;;
33094;SDS011;19459;53.044;8.910;2022-11-24T17:21:13;26.52;;;14.93;;